Time;durP1;ratioP1;P1;durP2;ratioP2;P2;SDS_P1;SDS_P2;PMS_P1;PMS_P2;Temp;Humidity;BMP_temperature;BMP_pressure;BME280_temperature;BME280_humidity;BME280_pressure;Samples;Min_cycle;Max_cycle;Signal;HPM_P1;HPM_P2
2021/04/12 00:01:12;;;;;;;5.72;4.35;;;9.10;99.90;;;;;;5048959;28;20368;-74
2021/04/12 00:04:00;;;;;;;6.07;4.05;;;9.20;99.90;;;;;;5047422;28;20021;-73
2021/04/12 00:06:44;;;;;;;6.82;4.30;;;9.30;99.90;;;;;;5049149;28;20413;-72
2021/04/12 00:09:20;;;;;;;6.40;3.85;;;9.40;99.90;;;;;;5048782;28;20025;-72
2021/04/12 00:12:02;;;;;;;5.35;4.20;;;9.40;99.90;;;;;;5048766;28;20029;-73
2021/04/12 00:14:33;;;;;;;5.43;4.03;;;9.40;99.90;;;;;;5049127;28;20052;-72
2021/04/12 00:17:24;;;;;;;5.63;3.60;;;9.40;99.90;;;;;;5052962;28;20025;-72
2021/04/12 00:23:02;;;;;;;3.35;2.78;;;9.40;99.90;;;;;;5031727;28;20045;-74
2021/04/12 00:25:37;;;;;;;4.13;2.40;;;9.60;99.90;;;;;;5032432;28;20060;-74
2021/04/12 00:28:11;;;;;;;4.45;2.50;;;9.80;99.90;;;;;;5032440;28;20025;-74
2021/04/12 00:30:41;;;;;;;2.45;2.10;;;9.80;99.90;;;;;;5037476;28;20021;-74
2021/04/12 00:33:25;;;;;;;3.42;2.10;;;9.90;99.90;;;;;;5050988;28;20029;-73
2021/04/12 00:36:16;;;;;;;3.25;2.25;;;9.90;99.90;;;;;;5050937;28;20017;-74
2021/04/12 00:39:00;;;;;;;2.53;1.85;;;9.90;99.90;;;;;;5052207;28;20389;-73
2021/04/12 00:41:45;;;;;;;3.08;2.08;;;9.90;99.90;;;;;;5052123;28;20529;-74
2021/04/12 00:44:22;;;;;;;2.50;2.00;;;9.90;99.90;;;;;;5050775;28;20025;-74
2021/04/12 00:47:15;;;;;;;3.03;2.47;;;9.80;99.90;;;;;;5052011;28;20040;-74
2021/04/12 00:49:47;;;;;;;3.15;2.55;;;9.70;99.90;;;;;;5050704;28;20021;-74
2021/04/12 00:52:50;;;;;;;2.80;2.28;;;9.60;99.90;;;;;;5050456;28;20112;-75
2021/04/12 00:55:30;;;;;;;3.38;2.40;;;9.60;99.90;;;;;;5052356;28;20330;-73
2021/04/12 00:57:58;;;;;;;3.50;2.70;;;9.50;99.90;;;;;;5050500;28;20112;-74
2021/04/12 01:00:29;;;;;;;3.50;2.50;;;9.50;99.90;;;;;;5050299;28;20047;-74
2021/04/12 01:03:01;;;;;;;3.85;2.80;;;9.40;99.90;;;;;;5050739;28;20025;-73
2021/04/12 01:05:32;;;;;;;3.50;2.70;;;9.30;99.90;;;;;;5051800;28;20028;-74
2021/04/12 01:08:29;;;;;;;4.60;2.80;;;9.20;99.90;;;;;;5050273;28;20025;-74
2021/04/12 01:11:34;;;;;;;3.88;2.70;;;9.10;99.90;;;;;;5051799;28;20482;-74
2021/04/12 01:14:24;;;;;;;5.90;3.47;;;9.00;99.90;;;;;;5051312;28;20474;-74
2021/04/12 01:17:26;;;;;;;5.75;3.13;;;8.90;99.90;;;;;;5051637;28;20029;-74
2021/04/12 01:20:23;;;;;;;4.80;3.20;;;8.90;99.90;;;;;;5051557;28;20358;-74
2021/04/12 01:23:29;;;;;;;4.43;2.92;;;8.80;99.90;;;;;;5051214;28;20032;-74
2021/04/12 01:26:22;;;;;;;7.25;3.20;;;8.70;99.90;;;;;;5050982;28;20112;-74
2021/04/12 01:29:35;;;;;;;3.83;3.15;;;8.60;99.90;;;;;;5049898;28;20112;-73
2021/04/12 01:32:20;;;;;;;6.82;2.97;;;8.60;99.90;;;;;;5051045;28;20031;-74
2021/04/12 01:35:10;;;;;;;5.03;3.35;;;8.60;99.90;;;;;;5051032;28;20078;-74
2021/04/12 01:38:23;;;;;;;5.50;3.30;;;8.50;99.90;;;;;;5051348;28;20017;-74
2021/04/12 01:41:12;;;;;;;5.05;3.45;;;8.50;99.90;;;;;;5036570;28;20470;-74
2021/04/12 01:43:58;;;;;;;4.97;3.20;;;8.60;99.90;;;;;;5050515;28;20037;-73
2021/04/12 01:46:49;;;;;;;5.15;3.30;;;8.60;99.90;;;;;;5050389;28;20132;-73
2021/04/12 01:49:36;;;;;;;4.15;2.88;;;8.70;99.90;;;;;;5050775;28;20029;-73
2021/04/12 01:52:19;;;;;;;5.07;2.90;;;8.80;99.90;;;;;;5049344;28;20032;-73
2021/04/12 01:55:22;;;;;;;4.68;2.80;;;8.90;99.90;;;;;;5049320;28;20063;-74
2021/04/12 01:58:13;;;;;;;4.20;3.10;;;9.00;99.90;;;;;;5049357;28;20116;-74
2021/04/12 02:01:11;;;;;;;3.85;2.50;;;9.10;99.90;;;;;;5049174;28;20029;-73
2021/04/12 02:04:06;;;;;;;3.67;2.60;;;9.20;99.90;;;;;;5050554;28;20033;-74
2021/04/12 02:06:50;;;;;;;4.07;2.97;;;9.30;99.90;;;;;;5049698;28;20063;-74
2021/04/12 02:09:47;;;;;;;4.03;2.95;;;9.30;99.90;;;;;;5050637;28;20025;-74
2021/04/12 02:12:53;;;;;;;3.70;2.95;;;9.30;99.90;;;;;;5043001;28;20514;-74
2021/04/12 02:15:55;;;;;;;4.53;2.65;;;9.50;99.90;;;;;;5050497;28;20058;-74
2021/04/12 02:18:40;;;;;;;4.13;2.20;;;9.50;99.90;;;;;;5050223;28;20025;-74
2021/04/12 02:21:19;;;;;;;2.90;2.30;;;9.50;99.90;;;;;;5050207;28;20040;-74
2021/04/12 02:24:06;;;;;;;3.25;2.50;;;9.50;99.90;;;;;;5048842;28;20021;-74
2021/04/12 02:26:47;;;;;;;2.10;1.90;;;9.50;99.90;;;;;;5050012;28;20029;-74
2021/04/12 02:29:36;;;;;;;2.78;2.25;;;9.50;99.90;;;;;;5050288;28;20032;-74
2021/04/12 02:32:05;;;;;;;2.38;1.98;;;9.50;99.90;;;;;;5048850;28;20184;-74
2021/04/12 02:34:43;;;;;;;3.20;2.35;;;9.50;99.90;;;;;;5049788;28;20040;-74
2021/04/12 02:37:33;;;;;;;2.63;2.13;;;9.50;99.90;;;;;;5049339;28;20524;-74
2021/04/12 02:40:43;;;;;;;2.00;1.73;;;9.50;99.90;;;;;;5049744;28;20017;-74
2021/04/12 02:43:46;;;;;;;2.42;2.17;;;9.50;99.90;;;;;;5033313;28;20063;-74
2021/04/12 02:46:47;;;;;;;2.95;2.40;;;9.50;99.90;;;;;;5050308;28;20029;-74
2021/04/12 02:49:19;;;;;;;2.47;2.03;;;9.50;99.90;;;;;;5048267;28;20530;-74
2021/04/12 02:52:14;;;;;;;2.58;1.98;;;9.60;99.90;;;;;;5048245;28;20033;-74
2021/04/12 02:54:52;;;;;;;2.33;2.08;;;9.60;99.90;;;;;;5049877;28;20075;-73
2021/04/12 02:57:51;;;;;;;2.90;2.20;;;9.60;99.90;;;;;;5049921;28;20482;-74
2021/04/12 03:00:45;;;;;;;2.92;1.77;;;9.60;99.90;;;;;;5048132;28;20486;-74
2021/04/12 03:03:28;;;;;;;2.65;2.00;;;9.60;99.90;;;;;;5049458;28;20037;-74
2021/04/12 03:05:59;;;;;;;;;;;9.70;99.90;;;;;;5050304;28;20386;-74
2021/04/12 03:08:47;;;;;;;2.28;1.90;;;9.70;99.90;;;;;;5049335;28;19958;-74
2021/04/12 03:11:16;;;;;;;2.75;2.22;;;9.70;99.90;;;;;;5049464;28;20096;-74
2021/04/12 03:13:47;;;;;;;2.95;2.08;;;9.70;99.90;;;;;;5049231;28;20021;-74
2021/04/12 03:16:52;;;;;;;2.70;2.13;;;9.70;99.90;;;;;;5047892;28;20032;-74
2021/04/12 03:19:32;;;;;;;4.22;2.05;;;9.80;99.90;;;;;;5049217;28;20025;-74
2021/04/12 03:22:22;;;;;;;3.58;2.20;;;9.80;99.90;;;;;;5048973;28;20037;-74
2021/04/12 03:25:15;;;;;;;3.70;2.22;;;9.80;99.90;;;;;;5049154;28;20032;-74
2021/04/12 03:27:53;;;;;;;1.98;1.80;;;9.80;99.90;;;;;;5049103;28;20094;-74
2021/04/12 03:30:31;;;;;;;2.88;2.30;;;9.80;99.90;;;;;;5049110;28;20038;-74
2021/04/12 03:33:34;;;;;;;2.53;2.22;;;9.80;99.90;;;;;;5047689;28;20033;-74
2021/04/12 03:36:27;;;;;;;2.38;1.88;;;9.80;99.90;;;;;;5047768;28;20043;-74
2021/04/12 03:39:16;;;;;;;3.03;2.22;;;9.80;99.90;;;;;;5049009;28;20450;-73
2021/04/12 03:41:51;;;;;;;2.78;2.17;;;9.80;99.90;;;;;;5048959;28;20021;-74
2021/04/12 03:44:58;;;;;;;2.92;2.42;;;9.80;99.90;;;;;;5048059;28;20040;-74
2021/04/12 03:48:01;;;;;;;4.38;2.38;;;9.80;99.90;;;;;;5049017;28;20543;-74
2021/04/12 03:50:52;;;;;;;4.88;2.92;;;9.80;99.90;;;;;;5052934;28;20379;-74
2021/04/12 03:54:04;;;;;;;4.28;2.40;;;9.80;99.90;;;;;;5052865;28;20036;-74
2021/04/12 03:57:01;;;;;;;2.92;2.40;;;9.80;99.90;;;;;;5053476;28;20021;-74
2021/04/12 03:59:39;;;;;;;3.83;2.83;;;9.80;99.90;;;;;;5051599;28;20021;-74
2021/04/12 04:02:35;;;;;;;3.65;2.72;;;9.80;99.90;;;;;;5052693;28;20497;-74
2021/04/12 04:05:19;;;;;;;3.97;2.70;;;9.80;99.90;;;;;;5052835;28;20074;-74
2021/04/12 04:08:14;;;;;;;4.90;2.60;;;9.70;99.90;;;;;;5051478;28;20458;-74
2021/04/12 04:11:15;;;;;;;4.72;2.58;;;9.80;99.90;;;;;;5052839;28;20021;-73
2021/04/12 04:14:10;;;;;;;8.38;2.75;;;9.80;99.90;;;;;;5052912;28;20025;-74
2021/04/12 04:16:59;;;;;;;4.57;3.00;;;9.80;99.90;;;;;;5052634;28;20490;-74
2021/04/12 04:19:46;;;;;;;3.85;3.08;;;9.80;99.90;;;;;;5051384;28;20025;-73
2021/04/12 04:22:33;;;;;;;3.53;2.72;;;9.80;99.90;;;;;;5052609;28;20398;-74
2021/04/12 04:25:26;;;;;;;6.60;2.95;;;9.80;99.90;;;;;;5052825;28;20385;-74
2021/04/12 04:28:10;;;;;;;;;;;9.80;99.90;;;;;;5053173;28;20092;-74
2021/04/12 04:30:52;;;;;;;6.15;3.45;;;9.80;99.90;;;;;;5052589;28;19912;-74
2021/04/12 04:33:29;;;;;;;4.70;3.40;;;9.80;99.90;;;;;;5051139;28;20106;-74
2021/04/12 04:36:15;;;;;;;4.70;3.08;;;9.80;99.90;;;;;;5051086;28;20401;-74
2021/04/12 04:38:56;;;;;;;6.28;3.33;;;9.80;99.90;;;;;;5044920;28;20115;-74
2021/04/12 04:41:50;;;;;;;6.15;4.07;;;9.70;99.90;;;;;;5050979;28;20542;-74
2021/04/12 04:44:34;;;;;;;5.13;4.22;;;9.80;99.90;;;;;;5052243;28;20067;-74
2021/04/12 04:47:19;;;;;;;6.47;4.18;;;9.80;99.90;;;;;;5052925;28;20493;-74
2021/04/12 04:50:19;;;;;;;5.55;4.53;;;9.80;99.90;;;;;;5052651;28;20539;-74
2021/04/12 04:52:56;;;;;;;4.60;3.80;;;9.80;99.90;;;;;;5053515;28;20095;-74
2021/04/12 04:55:51;;;;;;;5.35;4.00;;;9.80;99.90;;;;;;5051858;28;20032;-74
2021/04/12 04:58:24;;;;;;;4.93;3.97;;;9.80;99.90;;;;;;5052249;28;20549;-73
2021/04/12 05:00:52;;;;;;;4.82;3.90;;;9.80;99.90;;;;;;5050921;28;20025;-74
2021/04/12 05:03:51;;;;;;;6.65;4.70;;;9.80;99.90;;;;;;5050429;28;20021;-73
2021/04/12 05:06:40;;;;;;;8.00;4.55;;;9.80;99.90;;;;;;5052178;28;20025;-73
2021/04/12 05:09:23;;;;;;;6.32;4.55;;;9.80;99.90;;;;;;5031675;28;20033;-73
2021/04/12 05:12:14;;;;;;;5.32;4.50;;;9.80;99.90;;;;;;5050296;28;20393;-74
2021/04/12 05:14:52;;;;;;;5.13;4.20;;;9.70;99.90;;;;;;5050331;28;20082;-74
2021/04/12 05:17:26;;;;;;;6.60;4.57;;;9.70;99.90;;;;;;5051863;28;20025;-73
2021/04/12 05:20:20;;;;;;;5.55;4.28;;;9.70;99.90;;;;;;5051375;28;20083;-73
2021/04/12 05:23:16;;;;;;;5.57;4.68;;;9.70;99.90;;;;;;5051745;28;20397;-74
2021/04/12 05:25:59;;;;;;;6.70;4.78;;;9.80;99.90;;;;;;5051927;28;20412;-74
2021/04/12 05:28:35;;;;;;;;;;;9.80;99.90;;;;;;5050558;28;20029;-73
2021/04/12 05:31:09;;;;;;;5.45;4.00;;;9.80;99.90;;;;;;5051445;28;19912;-74
2021/04/12 05:33:46;;;;;;;5.15;4.25;;;9.90;99.90;;;;;;5050087;28;20037;-73
2021/04/12 05:36:30;;;;;;;4.75;4.07;;;9.90;99.90;;;;;;5051871;28;20021;-74
2021/04/12 05:39:14;;;;;;;5.18;3.85;;;9.90;99.90;;;;;;5049864;28;20021;-74
2021/04/12 05:42:05;;;;;;;4.70;3.92;;;9.90;99.90;;;;;;5051374;28;20028;-74
2021/04/12 05:44:59;;;;;;;5.60;4.38;;;10.00;99.90;;;;;;5043786;28;20410;-74
2021/04/12 05:47:38;;;;;;;5.55;4.97;;;10.10;99.90;;;;;;5051083;28;20021;-74
2021/04/12 05:50:29;;;;;;;6.07;4.93;;;10.10;99.90;;;;;;5049609;28;20028;-74
2021/04/12 05:53:21;;;;;;;6.18;4.72;;;10.10;99.90;;;;;;5050813;28;20024;-75
2021/04/12 05:55:56;;;;;;;5.33;4.23;;;10.00;99.90;;;;;;5051300;28;20013;-75
2021/04/12 05:58:59;;;;;;;6.57;4.78;;;10.10;99.90;;;;;;5049591;28;20078;-73
2021/04/12 06:01:47;;;;;;;6.07;5.18;;;10.00;99.90;;;;;;5050719;28;20025;-74
2021/04/12 06:04:41;;;;;;;6.30;4.93;;;10.00;99.90;;;;;;5049427;28;20074;-75
2021/04/12 06:07:31;;;;;;;7.65;5.35;;;10.00;99.90;;;;;;5049417;28;20021;-75
2021/04/12 06:10:26;;;;;;;7.57;6.35;;;10.00;99.90;;;;;;5050602;28;20474;-75
2021/04/12 06:13:09;;;;;;;8.35;7.05;;;10.00;99.90;;;;;;5049312;28;20029;-75
2021/04/12 06:16:13;;;;;;;11.32;9.85;;;9.90;99.90;;;;;;5049335;28;20028;-75
2021/04/12 06:18:45;;;;;;;;;;;9.80;99.90;;;;;;5049582;28;20045;-75
2021/04/12 06:21:29;;;;;;;11.35;9.57;;;9.70;99.90;;;;;;5067868;22;19920;-73
2021/04/12 06:23:57;;;;;;;11.23;9.02;;;9.70;99.90;;;;;;5030714;28;20386;-73
2021/04/12 06:26:55;;;;;;;11.63;9.32;;;9.60;99.90;;;;;;5029196;28;20470;-74
2021/04/12 06:29:50;;;;;;;11.20;9.70;;;9.50;99.90;;;;;;5029236;28;20114;-73
2021/04/12 06:32:49;;;;;;;11.52;9.48;;;9.40;99.90;;;;;;5030190;28;20076;-73
2021/04/12 06:35:52;;;;;;;12.15;9.50;;;9.30;99.90;;;;;;5028920;28;20025;-74
2021/04/12 06:38:55;;;;;;;11.85;8.65;;;9.10;99.90;;;;;;5030311;28;20033;-73
2021/04/12 06:41:40;;;;;;;;;;;9.10;99.90;;;;;;5029411;28;20029;-73
2021/04/12 06:44:56;;;;;;;8.40;7.38;;;9.00;99.90;;;;;;5028697;28;19929;-73
2021/04/12 06:47:44;;;;;;;9.18;7.63;;;9.00;99.90;;;;;;5005060;28;20042;-73
2021/04/12 06:50:23;;;;;;;9.05;7.22;;;8.90;99.90;;;;;;5031198;28;20025;-73
2021/04/12 06:53:23;;;;;;;9.02;7.53;;;8.90;99.90;;;;;;5030793;28;20029;-73
2021/04/12 06:55:55;;;;;;;8.98;7.28;;;8.80;99.90;;;;;;5028878;28;20116;-73
2021/04/12 06:58:54;;;;;;;9.70;7.97;;;8.50;99.90;;;;;;5028515;28;20029;-73
2021/04/12 07:01:38;;;;;;;11.98;9.10;;;8.40;99.90;;;;;;5028735;28;20079;-73
2021/04/12 07:04:25;;;;;;;10.38;8.05;;;8.20;99.90;;;;;;5029985;28;20087;-74
2021/04/12 07:06:57;;;;;;;12.48;10.10;;;7.90;99.90;;;;;;5028925;28;20509;-74
2021/04/12 07:09:44;;;;;;;16.92;13.27;;;7.70;99.90;;;;;;5029399;28;20041;-72
2021/04/12 07:12:45;;;;;;;20.02;13.10;;;7.50;99.90;;;;;;5029139;28;20031;-74
2021/04/12 07:15:25;;;;;;;14.73;10.93;;;7.20;99.90;;;;;;5030798;28;20029;-74
2021/04/12 07:18:12;;;;;;;11.23;7.65;;;7.00;99.90;;;;;;5030813;28;20043;-74
2021/04/12 07:21:10;;;;;;;10.82;7.70;;;6.70;99.90;;;;;;5029680;28;20025;-74
2021/04/12 07:24:04;;;;;;;8.90;5.45;;;6.50;99.90;;;;;;5029358;28;20033;-74
2021/04/12 07:27:20;;;;;;;6.25;4.55;;;6.40;99.90;;;;;;5030078;28;20037;-74
2021/04/12 07:30:06;;;;;;;8.02;5.90;;;6.30;99.90;;;;;;4970316;28;20590;-75
2021/04/12 07:33:01;;;;;;;7.20;4.93;;;6.20;99.90;;;;;;4969736;28;20035;-74
2021/04/12 07:36:00;;;;;;;6.22;4.13;;;6.20;99.90;;;;;;5013587;28;20072;-74
2021/04/12 07:38:56;;;;;;;4.82;3.60;;;6.20;99.90;;;;;;5029874;28;20105;-75
2021/04/12 07:42:06;;;;;;;6.03;4.00;;;6.00;99.90;;;;;;5028984;28;20028;-75
2021/04/12 07:44:50;;;;;;;6.78;5.07;;;5.70;99.90;;;;;;5028658;28;20487;-74
2021/04/12 07:47:52;;;;;;;7.70;5.55;;;5.50;99.90;;;;;;5029230;28;20398;-75
2021/04/12 07:50:43;;;;;;;9.17;6.57;;;5.30;99.90;;;;;;5030148;28;20027;-75
2021/04/12 07:53:17;;;;;;;7.32;5.78;;;5.20;99.90;;;;;;5029758;28;20280;-75
2021/04/12 07:55:55;;;;;;;8.70;6.75;;;5.10;99.90;;;;;;5029355;28;20080;-75
2021/04/12 07:58:58;;;;;;;8.38;6.65;;;5.10;99.90;;;;;;5030488;28;20041;-74
2021/04/12 08:01:51;;;;;;;8.93;7.03;;;5.00;99.90;;;;;;5030195;28;20021;-74
2021/04/12 08:04:35;;;;;;;;;;;4.80;99.90;;;;;;5029120;28;20036;-75
2021/04/12 08:07:59;;;;;;;7.53;5.78;;;4.60;99.90;;;;;;5029452;28;19906;-75
2021/04/12 08:10:44;;;;;;;9.27;6.10;;;4.60;99.90;;;;;;4952651;28;20424;-74
2021/04/12 08:13:46;;;;;;;12.15;5.90;;;4.60;99.90;;;;;;4968402;28;20027;-74
2021/04/12 08:16:18;;;;;;;7.20;5.28;;;4.50;99.90;;;;;;5028191;28;20091;-75
2021/04/12 08:19:22;;;;;;;7.95;6.20;;;4.50;99.90;;;;;;5029079;28;20101;-75
2021/04/12 08:22:03;;;;;;;7.68;6.00;;;4.40;99.90;;;;;;5006035;28;20073;-74
2021/04/12 08:25:02;;;;;;;7.65;5.80;;;4.40;99.90;;;;;;5029087;28;20053;-74
2021/04/12 08:27:56;;;;;;;7.28;5.70;;;4.30;99.90;;;;;;5027787;28;20502;-74
2021/04/12 08:30:52;;;;;;;7.82;5.80;;;4.30;99.90;;;;;;5029133;28;20059;-74
2021/04/12 08:33:58;;;;;;;6.60;5.13;;;4.30;99.90;;;;;;5027482;28;20025;-74
2021/04/12 08:36:45;;;;;;;7.88;5.45;;;4.30;99.90;;;;;;5032151;28;20025;-74
2021/04/12 08:39:19;;;;;;;6.20;4.75;;;4.20;99.90;;;;;;5032400;28;20025;-74
2021/04/12 08:42:07;;;;;;;8.15;5.15;;;4.20;99.90;;;;;;5029560;28;20060;-75
2021/04/12 08:44:54;;;;;;;6.28;4.43;;;4.30;99.90;;;;;;5032776;28;20101;-74
2021/04/12 08:47:43;;;;;;;5.03;3.80;;;4.30;99.90;;;;;;5031254;28;20033;-74
2021/04/12 08:50:36;;;;;;;8.50;4.80;;;4.30;99.90;;;;;;5024564;28;20042;-74
2021/04/12 08:53:29;;;;;;;5.90;4.20;;;4.10;99.90;;;;;;5032775;28;20167;-75
2021/04/12 08:56:26;;;;;;;5.30;4.00;;;4.00;99.90;;;;;;5031216;28;20029;-75
2021/04/12 08:59:21;;;;;;;5.45;3.90;;;3.90;99.90;;;;;;5031537;28;20025;-76
2021/04/12 09:01:59;;;;;;;5.13;3.97;;;4.00;99.90;;;;;;5030919;28;20105;-74
2021/04/12 09:04:52;;;;;;;5.60;4.25;;;4.00;99.90;;;;;;5031879;28;20021;-75
2021/04/12 09:08:09;;;;;;;5.75;4.30;;;4.00;99.90;;;;;;5030668;28;20031;-76
2021/04/12 09:10:46;;;;;;;6.35;4.40;;;4.10;99.90;;;;;;5032134;28;20026;-74
2021/04/12 09:13:43;;;;;;;7.00;4.72;;;4.10;99.90;;;;;;5032019;28;20119;-75
2021/04/12 09:16:44;;;;;;;6.93;4.47;;;4.10;99.90;;;;;;5031809;28;20021;-75
2021/04/12 09:19:35;;;;;;;5.65;4.50;;;3.90;99.90;;;;;;4989498;28;20030;-76
2021/04/12 09:22:20;;;;;;;6.22;4.32;;;4.00;99.90;;;;;;5030274;28;20513;-75
2021/04/12 09:25:19;;;;;;;5.93;4.50;;;4.00;99.90;;;;;;5031562;28;20030;-74
2021/04/12 09:28:21;;;;;;;5.70;3.88;;;4.00;99.90;;;;;;5030142;28;20022;-75
2021/04/12 09:31:24;;;;;;;6.53;5.03;;;4.10;99.90;;;;;;5031755;28;20493;-75
2021/04/12 09:34:08;;;;;;;5.63;4.50;;;4.10;99.90;;;;;;5031541;28;20037;-75
2021/04/12 09:37:17;;;;;;;6.05;4.47;;;4.10;99.90;;;;;;5031707;28;20026;-76
2021/04/12 09:40:12;;;;;;;7.07;5.18;;;4.10;99.90;;;;;;5031744;28;20081;-76
2021/04/12 09:43:03;;;;;;;6.18;5.05;;;4.10;99.90;;;;;;5011211;28;20047;-76
2021/04/12 09:46:07;;;;;;;7.53;4.93;;;4.20;99.90;;;;;;5029685;28;20049;-73
2021/04/12 09:49:00;;;;;;;6.28;4.88;;;4.20;99.90;;;;;;5031225;28;20021;-75
2021/04/12 09:51:25;;;;;;;6.57;5.20;;;4.20;99.90;;;;;;5031061;28;20025;-74
2021/04/12 09:54:06;;;;;;;6.55;5.10;;;4.20;99.90;;;;;;5030894;28;20068;-74
2021/04/12 09:57:20;;;;;;;7.35;4.95;;;4.10;99.90;;;;;;5030814;28;20032;-74
2021/04/12 10:00:17;;;;;;;6.28;5.55;;;4.20;99.90;;;;;;5029555;28;20025;-74
2021/04/12 10:02:55;;;;;;;6.13;4.50;;;4.30;99.90;;;;;;5029492;28;20036;-74
2021/04/12 10:06:02;;;;;;;6.32;5.15;;;4.30;99.90;;;;;;5030756;28;20025;-74
2021/04/12 10:08:35;;;;;;;5.88;4.78;;;4.40;99.90;;;;;;5029405;28;20386;-74
2021/04/12 10:11:12;;;;;;;6.22;5.13;;;4.30;99.90;;;;;;5030885;28;20033;-74
2021/04/12 10:14:02;;;;;;;5.15;4.65;;;4.40;99.90;;;;;;5030694;28;20475;-74
2021/04/12 10:16:35;;;;;;;6.13;4.72;;;4.40;99.90;;;;;;5030604;28;20037;-74
2021/04/12 10:19:06;;;;;;;5.13;4.13;;;4.40;99.90;;;;;;5030586;28;20028;-73
2021/04/12 10:21:42;;;;;;;5.38;4.50;;;4.50;99.90;;;;;;5030358;28;20120;-74
2021/04/12 10:24:29;;;;;;;6.03;5.10;;;4.40;99.90;;;;;;5029378;28;20029;-74
2021/04/12 10:27:04;;;;;;;5.85;4.82;;;4.30;99.90;;;;;;5030612;28;20067;-74
2021/04/12 10:29:54;;;;;;;4.93;4.45;;;4.50;99.90;;;;;;5030699;28;20418;-74
2021/04/12 10:32:24;;;;;;;5.00;4.15;;;4.60;99.90;;;;;;5030385;28;20108;-74
2021/04/12 10:35:07;;;;;;;4.40;4.00;;;4.70;99.90;;;;;;5030320;28;20441;-74
2021/04/12 10:37:58;;;;;;;5.00;4.20;;;4.80;99.90;;;;;;5028934;28;20441;-74
2021/04/12 10:40:44;;;;;;;5.30;4.53;;;4.80;99.90;;;;;;5028754;28;20037;-74
2021/04/12 10:43:45;;;;;;;4.43;3.60;;;4.70;99.90;;;;;;5028978;28;20036;-74
2021/04/12 10:46:22;;;;;;;5.55;4.40;;;4.60;99.90;;;;;;4953340;28;20492;-74
2021/04/12 10:49:02;;;;;;;6.05;4.50;;;4.60;99.90;;;;;;5018705;28;20112;-74
2021/04/12 10:51:44;;;;;;;4.88;4.38;;;4.80;99.90;;;;;;5030095;28;20023;-74
2021/04/12 10:54:37;;;;;;;4.45;3.97;;;4.90;99.90;;;;;;5029986;28;20021;-74
2021/04/12 10:57:42;;;;;;;4.38;3.85;;;5.10;99.90;;;;;;5029639;28;20053;-74
2021/04/12 11:00:28;;;;;;;4.20;3.70;;;5.10;99.90;;;;;;5030216;28;20482;-74
2021/04/12 11:03:09;;;;;;;5.28;4.10;;;5.00;99.90;;;;;;5028476;28;20044;-74
2021/04/12 11:05:35;;;;;;;5.32;4.55;;;4.90;99.90;;;;;;5029819;28;20072;-74
2021/04/12 11:08:33;;;;;;;6.55;5.22;;;5.00;99.90;;;;;;5028487;28;20394;-74
2021/04/12 11:11:45;;;;;;;5.90;4.88;;;5.00;99.90;;;;;;4976133;28;20035;-74
2021/04/12 11:14:32;;;;;;;5.15;4.65;;;5.20;99.90;;;;;;5029688;28;20120;-74
2021/04/12 11:17:03;;;;;;;5.78;4.85;;;5.50;99.90;;;;;;5028507;28;20052;-74
2021/04/12 11:19:48;;;;;;;5.15;4.45;;;5.70;99.90;;;;;;5029546;28;20085;-74
2021/04/12 11:22:31;;;;;;;5.40;4.80;;;5.90;99.90;;;;;;5028331;28;20034;-74
2021/04/12 11:25:06;;;;;;;6.40;5.40;;;6.20;99.90;;;;;;5029881;28;20029;-73
2021/04/12 11:28:08;;;;;;;5.68;4.60;;;6.20;99.90;;;;;;5028617;28;20029;-74
2021/04/12 11:31:24;;;;;;;5.00;4.50;;;6.00;99.90;;;;;;5030034;28;20025;-74
2021/04/12 11:34:03;;;;;;;5.93;4.65;;;5.70;99.90;;;;;;5011364;28;20037;-74
2021/04/12 11:36:46;;;;;;;5.38;4.75;;;5.80;99.90;;;;;;5029631;28;20030;-74
2021/04/12 11:39:23;;;;;;;3.55;2.78;;;6.10;99.90;;;;;;5028391;28;20658;-74
2021/04/12 11:41:54;;;;;;;3.90;3.15;;;6.20;99.90;;;;;;5028195;28;20030;-75
2021/04/12 11:45:09;;;;;;;2.80;2.50;;;6.40;99.90;;;;;;5029666;28;20029;-74
2021/04/12 11:47:48;;;;;;;3.08;2.63;;;6.40;99.90;;;;;;5024427;28;20033;-74
2021/04/12 11:50:59;;;;;;;3.22;2.85;;;6.40;99.90;;;;;;5029789;28;20030;-74
2021/04/12 11:53:28;;;;;;;4.10;3.45;;;6.20;99.90;;;;;;5026104;28;20463;-74
2021/04/12 11:56:02;;;;;;;4.20;3.70;;;6.10;99.90;;;;;;5029216;28;20120;-74
2021/04/12 11:58:52;;;;;;;4.50;3.75;;;6.00;99.90;;;;;;5029195;28;20140;-74
2021/04/12 12:01:26;;;;;;;3.30;2.67;;;6.10;99.90;;;;;;5029344;28;20087;-75
2021/04/12 12:04:07;;;;;;;3.03;2.70;;;6.10;99.90;;;;;;5029233;28;20030;-74
2021/04/12 12:07:10;;;;;;;5.22;3.63;;;6.10;99.90;;;;;;5029571;28;20037;-74
2021/04/12 12:09:48;;;;;;;4.50;4.00;;;6.10;99.90;;;;;;5031123;28;20018;-74
2021/04/12 12:12:47;;;;;;;4.90;4.40;;;6.20;99.90;;;;;;5033307;28;20048;-75
2021/04/12 12:15:26;;;;;;;4.40;3.85;;;6.00;99.90;;;;;;5032938;28;20029;-74
2021/04/12 12:18:02;;;;;;;4.35;3.60;;;6.00;99.90;;;;;;5032912;28;20451;-75
2021/04/12 12:20:53;;;;;;;3.35;3.05;;;6.00;99.90;;;;;;5032925;28;20032;-74
2021/04/12 12:23:39;;;;;;;4.03;2.95;;;6.00;99.90;;;;;;5056593;22;20129;-73
2021/04/12 12:26:13;;;;;;;4.55;3.45;;;6.00;99.90;;;;;;5031410;28;20138;-73
2021/04/12 12:29:07;;;;;;;6.00;4.45;;;5.80;99.90;;;;;;5032487;28;20032;-74
2021/04/12 12:31:46;;;;;;;7.25;4.82;;;5.60;99.90;;;;;;5030106;28;20029;-74
2021/04/12 12:34:41;;;;;;;9.63;6.10;;;5.40;99.90;;;;;;5032436;28;20026;-74
2021/04/12 12:37:33;;;;;;;6.22;5.63;;;5.10;99.90;;;;;;5032606;28;20021;-74
2021/04/12 12:40:01;;;;;;;5.77;4.70;;;5.20;99.90;;;;;;5032294;28;20068;-73
2021/04/12 12:42:38;;;;;;;5.40;4.68;;;5.40;99.90;;;;;;5032053;28;20032;-75
2021/04/12 12:45:16;;;;;;;6.20;4.13;;;5.60;99.90;;;;;;5030781;28;20034;-73
2021/04/12 12:48:14;;;;;;;4.40;3.30;;;5.70;99.90;;;;;;5030929;28;20018;-74
2021/04/12 12:50:52;;;;;;;5.72;3.72;;;5.90;99.90;;;;;;5027786;28;20509;-74
2021/04/12 12:53:29;;;;;;;4.63;3.30;;;6.00;99.90;;;;;;5030669;28;20125;-75
2021/04/12 12:56:03;;;;;;;5.47;3.67;;;6.00;99.90;;;;;;5032253;28;20037;-75
2021/04/12 12:58:30;;;;;;;6.13;4.00;;;6.10;99.90;;;;;;5031537;28;20021;-73
2021/04/12 13:01:07;;;;;;;4.05;3.60;;;6.20;99.90;;;;;;5032271;28;20021;-75
2021/04/12 13:03:43;;;;;;;4.57;3.67;;;6.40;99.90;;;;;;5030242;28;20025;-74
2021/04/12 13:06:16;;;;;;;4.55;3.75;;;6.50;99.90;;;;;;5030678;28;20056;-74
2021/04/12 13:08:52;;;;;;;4.32;3.72;;;6.40;99.90;;;;;;5031782;28;20391;-73
2021/04/12 13:11:53;;;;;;;4.53;3.42;;;6.20;99.90;;;;;;5030329;28;20448;-75
2021/04/12 13:14:40;;;;;;;4.95;3.53;;;6.10;99.90;;;;;;5030057;28;20402;-73
2021/04/12 13:17:35;;;;;;;6.07;4.10;;;6.00;99.90;;;;;;5032394;28;20029;-74
2021/04/12 13:20:18;;;;;;;5.88;3.33;;;5.90;99.90;;;;;;5031352;28;20487;-75
2021/04/12 13:22:54;;;;;;;4.38;3.90;;;5.90;99.90;;;;;;5029914;28;20075;-76
2021/04/12 13:25:42;;;;;;;5.30;4.18;;;6.00;99.90;;;;;;5031648;28;20364;-75
2021/04/12 13:28:31;;;;;;;5.00;3.95;;;6.00;99.90;;;;;;5031500;28;20033;-75
2021/04/12 13:31:21;;;;;;;7.25;4.95;;;5.90;99.90;;;;;;5030242;28;20021;-76
2021/04/12 13:33:46;;;;;;;5.82;4.43;;;5.70;99.90;;;;;;5030156;28;20084;-76
2021/04/12 13:36:16;;;;;;;5.47;4.57;;;5.60;99.90;;;;;;5031227;28;20025;-76
2021/04/12 13:38:43;;;;;;;6.20;4.68;;;5.70;99.90;;;;;;5031283;28;20148;-75
2021/04/12 13:41:12;;;;;;;5.07;4.07;;;5.80;99.90;;;;;;5031149;28;20092;-76
2021/04/12 13:43:42;;;;;;;5.30;3.85;;;5.90;99.90;;;;;;5030889;28;20037;-75
2021/04/12 13:46:28;;;;;;;5.47;3.83;;;6.00;99.90;;;;;;5031134;28;20490;-76
2021/04/12 13:49:08;;;;;;;5.28;4.10;;;6.00;99.90;;;;;;5029673;28;20061;-76
2021/04/12 13:51:33;;;;;;;5.65;3.92;;;6.10;99.90;;;;;;5030953;28;20028;-75
2021/04/12 13:54:29;;;;;;;5.00;4.07;;;6.00;99.90;;;;;;5029648;28;20022;-74
2021/04/12 13:57:03;;;;;;;5.40;4.15;;;5.90;99.90;;;;;;5029494;28;20029;-75
2021/04/12 13:59:35;;;;;;;4.85;3.97;;;5.80;99.90;;;;;;5029468;28;20033;-75
2021/04/12 14:02:07;;;;;;;6.70;3.92;;;5.70;99.90;;;;;;5031036;28;20030;-75
2021/04/12 14:04:42;;;;;;;10.07;5.77;;;5.70;99.90;;;;;;5029499;28;20448;-76
2021/04/12 14:07:19;;;;;;;6.55;4.55;;;5.70;99.90;;;;;;5029659;28;20286;-76
2021/04/12 14:10:01;;;;;;;5.53;4.40;;;5.80;99.90;;;;;;5030230;28;20044;-75
2021/04/12 14:12:52;;;;;;;5.15;4.07;;;5.90;99.90;;;;;;5029341;28;20032;-76
2021/04/12 14:15:35;;;;;;;6.50;4.82;;;5.90;99.90;;;;;;5030854;28;20034;-76
2021/04/12 14:18:07;;;;;;;6.53;5.22;;;5.70;99.90;;;;;;5030675;28;20025;-76
2021/04/12 14:20:45;;;;;;;5.97;5.32;;;5.50;99.90;;;;;;5030569;28;20490;-76
2021/04/12 14:23:32;;;;;;;6.40;5.55;;;5.40;99.90;;;;;;5028906;28;20037;-76
2021/04/12 14:26:13;;;;;;;8.02;6.40;;;5.50;99.90;;;;;;5029096;28;20022;-75
2021/04/12 14:28:47;;;;;;;7.07;5.90;;;5.70;99.90;;;;;;5030585;28;20022;-75
2021/04/12 14:31:30;;;;;;;6.38;5.57;;;5.90;99.90;;;;;;5030392;28;20390;-75
2021/04/12 14:34:21;;;;;;;5.80;4.97;;;5.90;99.90;;;;;;5029422;28;20082;-76
2021/04/12 14:36:46;;;;;;;5.45;4.60;;;6.00;99.90;;;;;;5030545;28;20018;-75
2021/04/12 14:39:25;;;;;;;5.60;4.65;;;6.00;99.90;;;;;;5029037;28;20082;-75
2021/04/12 14:42:07;;;;;;;6.72;5.35;;;6.00;99.90;;;;;;5028925;28;20406;-75
2021/04/12 14:44:42;;;;;;;6.75;4.93;;;5.90;99.90;;;;;;5028820;28;20025;-75